White Plains, Virginia
Current Conditions -  °F | °C
As of 7:56 AM on Saturday 20 Dec 2014 (Local Time) from KAVC Reporting Station
Clear Clear  
Wind Chill: 31°   Ceiling: Unl
Heat Index: 31°   Visibility: 10mi
Dew Point: 24°   Wind: 0mph
Humidity: 76%   Direction: NA
Pressure: 30.36"   Gusts: NA
Location:  36.62°N, 77.93°W
Report Text: KAVC 201256Z AUTO 00000KT 10SM CLR M01/M04 A3036 RMK AO2 T10061044
Loading
Personal Weather Stations






























Interactive Weather Map New forecast layout! Learn more

10-Day Weather Forecast

Advertisements
Track Severe Weather on mobile